METAR Data

Data at: 1131 UTC 24 May 2022

METAR for:KWST (Westerly State Arpt, RI, US)
Text:KWST 241053Z AUTO 04008KT 10SM CLR 13/06 A3029 RMK AO2 SLP256 T01330061
Temperature: 13.3°C ( 56°F)
Dewpoint: 6.1°C ( 43°F) [RH = 62%]
Pressure (altimeter):30.29 inches Hg (1025.8 mb) [Sea level pressure: 1025.6 mb]
Winds:from the NE (40 degrees) at 9 MPH (8 knots; 4.1 m/s)
Visibility:10 or more sm (16+ km)
Ceiling:at least 12,000 feet AGL
Clouds:sky clear below 12,000 feet AGL
QC Flag:automated observation with no human augmentation